createdAt,value
2023-04-16T02:55:58.633Z,91.39
2023-04-16T02:56:58.607Z,91.29
2023-04-16T02:57:58.595Z,91.29
2023-04-16T02:58:58.613Z,92.11
2023-04-16T02:59:58.627Z,91.19
2023-04-16T03:00:58.650Z,91.08
2023-04-16T03:01:58.701Z,91.08
2023-04-16T03:02:58.613Z,90.88
2023-04-16T03:03:58.629Z,91.49
2023-04-16T03:04:58.598Z,92.21
2023-04-16T03:05:58.568Z,91.08
2023-04-16T03:06:58.551Z,91.39
2023-04-16T03:07:58.542Z,91.91
2023-04-16T03:08:58.542Z,91.91
2023-04-16T03:09:58.579Z,91.70
2023-04-16T03:10:58.509Z,91.80
2023-04-16T03:11:58.512Z,91.39
2023-04-16T03:12:58.496Z,91.39
2023-04-16T03:13:58.478Z,91.49
2023-04-16T03:14:58.504Z,92.01
2023-04-16T03:15:58.511Z,91.76
2023-04-16T03:16:58.449Z,92.27
2023-04-16T03:17:58.522Z,92.21
2023-04-16T03:18:58.495Z,92.73
2023-04-16T03:19:58.486Z,92.27
2023-04-16T03:20:58.509Z,92.93
2023-04-16T03:21:58.425Z,93.14
2023-04-16T03:22:58.408Z,93.65
2023-04-16T03:23:58.459Z,93.70
2023-04-16T03:24:58.465Z,93.35
2023-04-16T03:25:58.437Z,93.55
2023-04-16T03:26:58.416Z,93.76
2023-04-16T03:27:58.383Z,93.96
2023-04-16T03:28:58.395Z,93.96
2023-04-16T03:29:58.396Z,93.65
2023-04-16T03:30:58.420Z,93.86
2023-04-16T03:31:58.357Z,94.07
2023-04-16T03:32:58.439Z,94.17
2023-04-16T03:33:58.340Z,94.37
2023-04-16T03:34:58.369Z,94.37
2023-04-16T03:35:58.315Z,94.37
2023-04-16T03:36:58.322Z,93.96
2023-04-16T03:37:58.302Z,94.27
2023-04-16T03:38:58.306Z,94.31
2023-04-16T03:39:58.334Z,94.37
2023-04-16T03:40:58.284Z,94.58
2023-04-16T03:41:58.289Z,94.52
2023-04-16T03:42:58.321Z,95.20
2023-04-16T03:43:58.295Z,94.99
2023-04-16T03:44:58.297Z,94.68
2023-04-16T03:45:58.259Z,94.89
2023-04-16T03:46:58.321Z,95.09
2023-04-16T03:47:58.317Z,95.61
2023-04-16T03:48:58.230Z,94.93
2023-04-16T03:49:58.239Z,95.03
2023-04-16T03:50:58.221Z,94.58
2023-04-16T03:51:58.216Z,94.37
2023-04-16T03:52:58.196Z,94.99
2023-04-16T03:53:58.208Z,94.89
2023-04-16T03:54:58.210Z,94.48
2023-04-16T03:55:58.178Z,95.20
2023-04-16T03:56:58.174Z,94.78
2023-04-16T03:57:58.175Z,94.68
2023-04-16T03:58:58.166Z,94.99
2023-04-16T03:59:58.158Z,94.99
2023-04-16T04:00:58.143Z,94.27
2023-04-16T04:01:58.215Z,94.37
2023-04-16T04:02:58.277Z,94.37
2023-04-16T04:03:58.275Z,94.78
2023-04-16T04:04:58.330Z,95.45
2023-04-16T04:05:58.122Z,94.58
2023-04-16T04:06:58.084Z,95.20
2023-04-16T04:07:58.146Z,95.09
2023-04-16T04:08:58.068Z,95.20
2023-04-16T04:09:58.079Z,95.40
2023-04-16T04:10:58.126Z,95.09
2023-04-16T04:11:58.069Z,95.50
2023-04-16T04:12:58.061Z,94.17
2023-04-16T04:13:58.048Z,95.40
2023-04-16T04:14:58.073Z,95.40
2023-04-16T04:15:58.044Z,93.96
2023-04-16T04:16:58.046Z,95.30
2023-04-16T04:17:58.108Z,94.89
2023-04-16T04:18:58.004Z,94.68
2023-04-16T04:20:01.357Z,94.58
2023-04-16T04:20:59.014Z,95.40
2023-04-16T04:21:57.989Z,95.40
2023-04-16T04:22:57.982Z,94.99
2023-04-16T04:23:57.983Z,94.37
2023-04-16T04:24:57.989Z,94.58
2023-04-16T04:25:58.004Z,94.78
2023-04-16T04:26:57.979Z,95.30
2023-04-16T04:27:57.936Z,94.99
2023-04-16T04:28:57.982Z,94.68
2023-04-16T04:29:57.935Z,94.27
2023-04-16T04:30:57.920Z,94.78
2023-04-16T04:31:57.941Z,94.48
2023-04-16T04:32:57.945Z,94.89
2023-04-16T04:33:57.911Z,94.68
2023-04-16T04:34:57.910Z,93.76
2023-04-16T04:35:57.907Z,94.37
2023-04-16T04:36:57.873Z,94.89
2023-04-16T04:37:57.861Z,94.17
2023-04-16T04:38:57.878Z,94.27
2023-04-16T04:39:57.873Z,94.78
2023-04-16T04:40:57.839Z,94.48
2023-04-16T04:41:57.812Z,94.58
2023-04-16T04:42:57.849Z,94.27
2023-04-16T04:43:57.841Z,94.37
2023-04-16T04:44:57.859Z,94.27
2023-04-16T04:45:57.842Z,94.17
2023-04-16T04:46:57.824Z,94.37
2023-04-16T04:47:57.882Z,94.27
2023-04-16T04:48:57.769Z,94.07
2023-04-16T04:49:57.814Z,94.23
2023-04-16T04:50:57.819Z,94.37
2023-04-16T04:51:57.776Z,94.17
2023-04-16T04:52:57.760Z,94.37
2023-04-16T04:53:57.753Z,94.37
2023-04-16T04:54:57.784Z,94.17
2023-04-16T04:56:08.957Z,94.07
2023-04-16T04:56:58.748Z,93.96
2023-04-16T04:57:57.724Z,94.27
2023-04-16T04:58:57.690Z,94.48
2023-04-16T04:59:57.714Z,93.96
2023-04-16T05:00:57.778Z,93.96
2023-04-16T05:01:57.729Z,93.86
2023-04-16T05:02:57.751Z,93.92
2023-04-16T05:03:57.704Z,94.12
2023-04-16T05:04:57.720Z,94.23
2023-04-16T05:05:57.683Z,93.82
2023-04-16T05:06:57.677Z,93.86
2023-04-16T05:07:57.647Z,93.86
2023-04-16T05:08:57.631Z,94.07
2023-04-16T05:09:57.769Z,94.12
2023-04-16T05:10:57.632Z,94.68
2023-04-16T05:11:57.633Z,94.48
2023-04-16T05:12:57.636Z,94.02
2023-04-16T05:13:57.605Z,94.17
2023-04-16T05:14:57.613Z,94.89
2023-04-16T05:15:57.585Z,94.74
2023-04-16T05:16:57.612Z,95.50
2023-04-16T05:17:57.613Z,94.68
2023-04-16T05:18:57.710Z,94.37
2023-04-16T05:19:57.576Z,94.37
2023-04-16T05:20:57.593Z,94.12
2023-04-16T05:21:57.636Z,94.68
2023-04-16T05:22:57.566Z,95.09
2023-04-16T05:23:57.536Z,94.48
2023-04-16T05:24:57.544Z,94.58
2023-04-16T05:25:58.202Z,94.99
2023-04-16T05:26:57.541Z,95.30
2023-04-16T05:27:57.525Z,95.09
2023-04-16T05:28:57.515Z,94.54
2023-04-16T05:29:57.511Z,94.37
2023-04-16T05:30:57.577Z,95.09
2023-04-16T05:31:57.548Z,95.15
2023-04-16T05:32:57.544Z,95.36
2023-04-16T05:33:57.464Z,94.78
2023-04-16T05:34:57.454Z,94.27
2023-04-16T05:35:57.496Z,94.33
2023-04-16T05:36:57.451Z,94.12
2023-04-16T05:37:57.420Z,94.27
2023-04-16T05:38:57.427Z,94.23
2023-04-16T05:39:57.434Z,94.23
2023-04-16T05:40:57.435Z,94.12
2023-04-16T05:41:57.405Z,94.23
2023-04-16T05:42:57.425Z,93.71
2023-04-16T05:43:57.448Z,93.92
2023-04-16T05:44:57.403Z,93.92
2023-04-16T05:45:57.502Z,93.71
2023-04-16T05:46:57.374Z,93.71
2023-04-16T05:47:57.394Z,93.82
2023-04-16T05:48:57.355Z,94.02
2023-04-16T05:49:57.359Z,93.82
2023-04-16T05:50:58.378Z,93.61
2023-04-16T05:51:57.329Z,93.51
2023-04-16T05:52:57.384Z,93.51
2023-04-16T05:53:57.347Z,93.51
2023-04-16T05:54:57.315Z,93.92
2023-04-16T05:55:57.317Z,93.71
2023-04-16T05:56:57.279Z,93.71
2023-04-16T05:57:57.295Z,93.51
2023-04-16T05:58:57.291Z,93.61
2023-04-16T05:59:57.326Z,93.40
2023-04-16T06:00:57.286Z,93.71
2023-04-16T06:01:57.317Z,93.51
2023-04-16T06:02:57.355Z,93.30
2023-04-16T06:03:57.465Z,93.71
2023-04-16T06:04:57.239Z,93.61
2023-04-16T06:05:57.377Z,93.61
2023-04-16T06:06:57.199Z,93.82
2023-04-16T06:07:57.249Z,93.51
2023-04-16T06:08:57.240Z,93.40
2023-04-16T06:09:57.280Z,93.40
2023-04-16T06:10:57.223Z,93.55
2023-04-16T06:11:57.227Z,93.82
2023-04-16T06:12:58.171Z,93.55
2023-04-16T06:13:57.192Z,94.27
2023-04-16T06:14:57.178Z,94.27
2023-04-16T06:15:57.256Z,94.48
2023-04-16T06:16:57.165Z,94.89
2023-04-16T06:17:58.062Z,93.86
2023-04-16T06:18:57.170Z,94.37
2023-04-16T06:19:57.157Z,94.17
2023-04-16T06:20:57.134Z,94.23
2023-04-16T06:21:58.140Z,94.58
2023-04-16T06:22:57.167Z,93.92
2023-04-16T06:23:57.104Z,94.23
2023-04-16T06:24:57.102Z,93.92
2023-04-16T06:25:57.091Z,93.71
2023-04-16T06:26:57.084Z,94.27
2023-04-16T06:27:57.069Z,94.23
2023-04-16T06:28:57.084Z,93.76
2023-04-16T06:29:57.115Z,93.40
2023-04-16T06:30:57.060Z,93.20
2023-04-16T06:31:57.059Z,93.82
2023-04-16T06:32:57.180Z,93.40
2023-04-16T06:33:57.043Z,93.44
2023-04-16T06:34:57.032Z,93.51
2023-04-16T06:35:57.034Z,93.51
2023-04-16T06:36:57.014Z,93.51
2023-04-16T06:37:57.001Z,93.61
2023-04-16T06:38:57.058Z,93.71
2023-04-16T06:39:57.692Z,92.69
2023-04-16T06:40:57.001Z,93.61
2023-04-16T06:41:56.981Z,93.05
2023-04-16T06:42:56.952Z,93.20
2023-04-16T06:43:56.975Z,93.82
2023-04-16T06:44:56.941Z,93.61
2023-04-16T06:45:57.001Z,93.82
2023-04-16T06:46:56.960Z,93.71
2023-04-16T06:47:56.942Z,93.30
2023-04-16T06:48:56.892Z,93.30
2023-04-16T06:49:56.933Z,93.61
2023-04-16T06:50:56.917Z,93.51
2023-04-16T06:51:56.888Z,93.82
2023-04-16T06:52:56.860Z,93.61
2023-04-16T06:53:56.944Z,93.40
2023-04-16T06:54:56.858Z,93.51
2023-04-16T06:55:56.934Z,93.51
2023-04-16T06:56:56.856Z,92.85
2023-04-16T06:57:56.821Z,93.10
2023-04-16T06:58:56.832Z,92.95
2023-04-16T06:59:57.001Z,93.10
2023-04-16T07:00:56.873Z,92.03
2023-04-16T07:01:56.888Z,92.23
2023-04-16T07:02:58.591Z,92.23
2023-04-16T07:03:57.968Z,93.36
2023-04-16T07:04:56.784Z,92.89
2023-04-16T07:05:56.824Z,93.20
2023-04-16T07:06:56.755Z,93.36
2023-04-16T07:07:56.755Z,92.17
2023-04-16T07:08:56.758Z,92.38
2023-04-16T07:09:57.140Z,93.26
2023-04-16T07:10:56.762Z,93.40
2023-04-16T07:11:57.630Z,92.33
2023-04-16T07:12:56.728Z,92.85
2023-04-16T07:13:56.708Z,93.10
2023-04-16T07:14:56.747Z,93.26
2023-04-16T07:15:56.711Z,92.54
2023-04-16T07:16:56.735Z,93.20
2023-04-16T07:17:56.727Z,92.23
2023-04-16T07:18:56.687Z,92.23
2023-04-16T07:19:56.755Z,92.23
2023-04-16T07:20:56.664Z,92.23
2023-04-16T07:21:56.658Z,92.03
2023-04-16T07:22:56.657Z,91.93
2023-04-16T07:23:56.640Z,92.44
2023-04-16T07:24:56.648Z,92.13
2023-04-16T07:25:56.670Z,92.03
2023-04-16T07:26:56.633Z,92.03
2023-04-16T07:27:56.653Z,92.23
2023-04-16T07:28:56.654Z,92.54
2023-04-16T07:29:56.613Z,92.17
2023-04-16T07:30:56.660Z,92.48
2023-04-16T07:31:56.626Z,92.17
2023-04-16T07:32:56.684Z,92.69
2023-04-16T07:33:56.618Z,92.27
2023-04-16T07:34:56.602Z,93.10
2023-04-16T07:35:56.597Z,92.99
2023-04-16T07:36:56.590Z,93.16
2023-04-16T07:37:56.546Z,93.10
2023-04-16T07:38:56.543Z,93.71
2023-04-16T07:39:57.421Z,92.17
2023-04-16T07:40:57.580Z,92.07
2023-04-16T07:41:56.517Z,92.79
2023-04-16T07:42:56.543Z,93.10
2023-04-16T07:43:56.529Z,92.07
2023-04-16T07:44:56.511Z,92.69
2023-04-16T07:45:56.589Z,93.40
2023-04-16T07:46:56.581Z,92.27
2023-04-16T07:47:56.672Z,92.99
2023-04-16T07:48:56.507Z,92.83
2023-04-16T07:49:56.456Z,92.17
2023-04-16T07:50:56.485Z,92.42
2023-04-16T07:51:56.464Z,93.35
2023-04-16T07:52:56.460Z,93.35
2023-04-16T07:53:56.449Z,93.35
2023-04-16T07:54:56.438Z,93.24
2023-04-16T07:55:57.203Z,93.14
2023-04-16T07:56:56.448Z,93.24
2023-04-16T07:57:56.427Z,93.04
2023-04-16T07:58:56.433Z,93.55
2023-04-16T07:59:56.424Z,93.04
2023-04-16T08:00:56.428Z,93.24
2023-04-16T08:01:56.439Z,93.35
2023-04-16T08:02:56.556Z,93.14
2023-04-16T08:03:56.591Z,93.55
2023-04-16T08:04:56.466Z,93.10
2023-04-16T08:05:56.357Z,93.76
2023-04-16T08:06:56.419Z,93.86
2023-04-16T08:07:56.334Z,93.14
2023-04-16T08:08:56.325Z,93.44
2023-04-16T08:09:56.341Z,93.24
2023-04-16T08:10:56.337Z,93.04
2023-04-16T08:11:56.315Z,92.83
2023-04-16T08:12:56.319Z,93.44
2023-04-16T08:13:56.289Z,93.44
2023-04-16T08:14:56.281Z,93.35
2023-04-16T08:15:56.311Z,93.24
2023-04-16T08:16:56.252Z,93.24
2023-04-16T08:17:56.352Z,92.93
2023-04-16T08:18:56.239Z,92.42
2023-04-16T08:19:56.241Z,93.04
2023-04-16T08:20:56.249Z,92.63
2023-04-16T08:21:56.220Z,92.83
2023-04-16T08:22:56.252Z,92.32
2023-04-16T08:23:56.236Z,93.04
2023-04-16T08:24:56.212Z,92.83
2023-04-16T08:25:56.213Z,93.35
2023-04-16T08:27:02.471Z,92.21
2023-04-16T08:27:57.157Z,93.24
2023-04-16T08:28:56.171Z,93.24
2023-04-16T08:29:56.199Z,93.24
2023-04-16T08:30:56.214Z,93.10
2023-04-16T08:31:56.201Z,93.04
2023-04-16T08:32:56.206Z,93.14
2023-04-16T08:33:56.136Z,93.14
2023-04-16T08:34:56.133Z,93.30
2023-04-16T08:35:56.142Z,92.83
2023-04-16T08:36:56.133Z,92.93
2023-04-16T08:37:56.108Z,93.65
2023-04-16T08:38:56.131Z,93.76
2023-04-16T08:39:56.126Z,93.14
2023-04-16T08:40:56.087Z,93.35
2023-04-16T08:41:56.090Z,93.55
2023-04-16T08:42:56.110Z,93.55
2023-04-16T08:43:56.074Z,93.55
2023-04-16T08:44:56.071Z,93.65
2023-04-16T08:45:56.041Z,93.76
2023-04-16T08:46:56.163Z,93.55
2023-04-16T08:47:56.082Z,93.76
2023-04-16T08:48:56.082Z,93.80
2023-04-16T08:49:58.323Z,93.96
2023-04-16T08:50:57.037Z,94.21
2023-04-16T08:51:56.005Z,94.31
2023-04-16T08:52:56.003Z,94.52
2023-04-16T08:53:56.137Z,94.31
2023-04-16T08:54:56.890Z,94.42
2023-04-16T08:55:56.014Z,94.87
2023-04-16T08:56:55.970Z,94.73
2023-04-16T08:57:55.948Z,94.62
2023-04-16T08:58:55.965Z,94.98
2023-04-16T08:59:55.991Z,95.28
2023-04-16T09:00:55.978Z,94.77
2023-04-16T09:01:56.075Z,94.98
2023-04-16T09:02:56.324Z,95.28
2023-04-16T09:03:56.084Z,94.56
2023-04-16T09:04:56.091Z,94.93
2023-04-16T09:05:55.896Z,95.18
2023-04-16T09:06:55.928Z,95.08
2023-04-16T09:07:55.871Z,94.56
2023-04-16T09:08:55.906Z,95.49
2023-04-16T09:09:55.897Z,94.98
2023-04-16T09:10:55.957Z,95.18
2023-04-16T09:11:55.897Z,94.77
2023-04-16T09:12:55.859Z,95.18
2023-04-16T09:13:55.852Z,94.87
2023-04-16T09:14:55.840Z,94.98
2023-04-16T09:15:55.914Z,94.87
2023-04-16T09:16:55.829Z,95.28
2023-04-16T09:17:55.890Z,94.87
2023-04-16T09:18:55.824Z,94.98
2023-04-16T09:19:55.842Z,95.18
2023-04-16T09:20:55.815Z,95.08
2023-04-16T09:21:55.801Z,95.08
2023-04-16T09:22:55.787Z,95.59
2023-04-16T09:23:55.790Z,94.98
2023-04-16T09:24:55.775Z,95.49
2023-04-16T09:25:56.757Z,96.00
2023-04-16T09:26:55.754Z,94.98
2023-04-16T09:27:55.758Z,95.08
2023-04-16T09:28:55.739Z,95.18
2023-04-16T09:29:55.781Z,94.98
2023-04-16T09:30:55.761Z,95.18
2023-04-16T09:31:55.755Z,95.08
2023-04-16T09:32:55.773Z,95.70
2023-04-16T09:33:55.741Z,95.80
2023-04-16T09:34:55.716Z,95.86
2023-04-16T09:35:55.819Z,94.98
2023-04-16T09:36:55.718Z,94.83
2023-04-16T09:37:55.696Z,96.00
2023-04-16T09:38:57.495Z,95.80
2023-04-16T09:39:56.746Z,95.59
2023-04-16T09:40:55.709Z,96.00
2023-04-16T09:41:55.650Z,95.80
2023-04-16T09:42:55.659Z,95.80
2023-04-16T09:43:55.634Z,95.39
2023-04-16T09:44:57.829Z,95.80
2023-04-16T09:45:55.651Z,95.18
2023-04-16T09:46:55.687Z,95.59
2023-04-16T09:47:55.673Z,95.59
2023-04-16T09:48:55.621Z,96.31
2023-04-16T09:49:55.623Z,96.31
2023-04-16T09:50:55.595Z,96.11
2023-04-16T09:51:55.595Z,95.70
2023-04-16T09:52:55.572Z,95.80
2023-04-16T09:53:57.151Z,95.80
2023-04-16T09:54:55.552Z,95.18
2023-04-16T09:55:55.549Z,95.49
2023-04-16T09:56:55.591Z,95.70
2023-04-16T09:57:55.538Z,95.70
2023-04-16T09:58:55.558Z,95.75
2023-04-16T09:59:55.551Z,95.39
2023-04-16T10:00:55.565Z,95.75
2023-04-16T10:01:57.715Z,95.86
2023-04-16T10:02:56.556Z,94.83
2023-04-16T10:03:55.557Z,95.28
2023-04-16T10:04:55.611Z,95.24
2023-04-16T10:05:55.502Z,94.42
2023-04-16T10:06:55.495Z,94.83
2023-04-16T10:07:55.472Z,94.83
2023-04-16T10:08:55.478Z,94.42
2023-04-16T10:09:55.476Z,94.98
2023-04-16T10:10:55.479Z,94.73
2023-04-16T10:11:55.441Z,95.45
2023-04-16T10:12:55.483Z,94.62
2023-04-16T10:13:55.421Z,94.68
2023-04-16T10:14:55.484Z,94.27
2023-04-16T10:15:56.423Z,93.44
2023-04-16T10:16:55.491Z,93.44
2023-04-16T10:17:55.449Z,93.55
2023-04-16T10:18:55.443Z,93.24
2023-04-16T10:19:55.383Z,93.55
2023-04-16T10:20:55.427Z,93.55
2023-04-16T10:21:55.391Z,93.55
2023-04-16T10:22:55.349Z,93.76
2023-04-16T10:23:55.370Z,93.55
2023-04-16T10:24:55.353Z,93.51
2023-04-16T10:25:57.347Z,93.30
2023-04-16T10:26:57.176Z,92.69
2023-04-16T10:27:55.309Z,93.71
2023-04-16T10:28:55.393Z,91.14
2023-04-16T10:29:55.313Z,91.29
2023-04-16T10:30:55.331Z,91.45
2023-04-16T10:31:55.323Z,91.86
2023-04-16T10:32:55.395Z,91.55
2023-04-16T10:33:55.283Z,92.07
2023-04-16T10:34:55.277Z,91.91
2023-04-16T10:36:07.040Z,91.86
2023-04-16T10:36:57.295Z,91.25
2023-04-16T10:37:55.256Z,91.55
2023-04-16T10:38:55.278Z,90.73
2023-04-16T10:39:55.255Z,91.45
2023-04-16T10:40:58.194Z,91.66
2023-04-16T10:41:55.273Z,91.35
2023-04-16T10:42:55.259Z,91.76
2023-04-16T10:43:55.234Z,91.51
2023-04-16T10:44:55.199Z,91.14
2023-04-16T10:45:55.210Z,91.45
2023-04-16T10:46:55.199Z,90.18
2023-04-16T10:47:55.295Z,91.61
2023-04-16T10:48:55.206Z,91.10
2023-04-16T10:49:56.170Z,91.31
2023-04-16T10:50:55.191Z,90.89
2023-04-16T10:51:55.197Z,91.51
2023-04-16T10:52:55.170Z,91.00
2023-04-16T10:53:55.170Z,90.38
2023-04-16T10:54:55.116Z,90.89
2023-04-16T10:55:55.161Z,89.76
2023-04-16T10:56:55.140Z,89.36
2023-04-16T10:57:55.102Z,89.66
2023-04-16T10:58:55.931Z,91.00
2023-04-16T10:59:55.107Z,91.20
2023-04-16T11:00:55.088Z,89.87
2023-04-16T11:01:55.172Z,89.21
2023-04-16T11:02:55.251Z,88.95
2023-04-16T11:03:55.203Z,90.18
2023-04-16T11:04:55.159Z,89.87
2023-04-16T11:05:55.062Z,90.14
2023-04-16T11:06:55.051Z,90.34
2023-04-16T11:07:55.080Z,90.24
2023-04-16T11:08:55.529Z,91.57
2023-04-16T11:09:55.070Z,90.55
2023-04-16T11:10:55.043Z,90.34
2023-04-16T11:11:54.992Z,90.03
2023-04-16T11:12:55.007Z,89.93
2023-04-16T11:13:54.993Z,89.72
2023-04-16T11:14:54.978Z,89.93
2023-04-16T11:15:55.023Z,89.78
2023-04-16T11:16:54.990Z,89.48
2023-04-16T11:17:54.998Z,89.42
2023-04-16T11:18:56.717Z,89.52
2023-04-16T11:19:54.940Z,89.58
2023-04-16T11:20:54.930Z,90.20
2023-04-16T11:21:54.946Z,88.66
2023-04-16T11:22:54.988Z,89.95
2023-04-16T11:23:54.978Z,89.54
2023-04-16T11:24:54.924Z,88.62
2023-04-16T11:25:55.005Z,88.31
2023-04-16T11:26:54.932Z,89.13
2023-04-16T11:27:54.975Z,88.72
2023-04-16T11:28:54.959Z,87.70
2023-04-16T11:29:54.970Z,87.70
2023-04-16T11:30:54.936Z,87.90
2023-04-16T11:31:54.983Z,88.78
2023-04-16T11:32:54.953Z,88.47
2023-04-16T11:33:54.833Z,87.24
2023-04-16T11:34:54.884Z,88.17
2023-04-16T11:35:54.825Z,88.78
2023-04-16T11:36:55.067Z,88.06
2023-04-16T11:37:54.863Z,87.82
2023-04-16T11:38:54.819Z,86.83
2023-04-16T11:39:54.803Z,87.82
2023-04-16T11:40:54.811Z,88.74
2023-04-16T11:41:54.849Z,87.92
2023-04-16T11:42:54.791Z,86.28
2023-04-16T11:43:54.805Z,87.51
2023-04-16T11:44:54.817Z,87.71
2023-04-16T11:45:54.745Z,86.90
2023-04-16T11:46:54.815Z,86.48
2023-04-16T11:47:54.783Z,87.41
2023-04-16T11:48:54.748Z,87.71
2023-04-16T11:49:54.730Z,86.79
2023-04-16T11:50:54.720Z,86.28
2023-04-16T11:51:54.729Z,86.85
2023-04-16T11:52:54.707Z,86.44
2023-04-16T11:53:54.703Z,86.85
2023-04-16T11:54:54.701Z,87.16
2023-04-16T11:55:54.822Z,86.79
2023-04-16T11:56:54.697Z,87.26
2023-04-16T11:57:54.667Z,87.77
2023-04-16T11:58:54.643Z,87.57
2023-04-16T12:00:02.531Z,86.65
2023-04-16T12:00:55.665Z,86.71
2023-04-16T12:01:54.734Z,85.48
2023-04-16T12:02:55.055Z,85.31
2023-04-16T12:03:55.134Z,86.30
2023-04-16T12:04:54.849Z,84.87
2023-04-16T12:05:55.682Z,84.87
2023-04-16T12:06:54.658Z,84.97
2023-04-16T12:07:54.612Z,86.30
2023-04-16T12:08:54.609Z,85.38
2023-04-16T12:09:54.588Z,85.55
2023-04-16T12:10:55.164Z,83.84
2023-04-16T12:11:54.604Z,85.38
2023-04-16T12:12:54.549Z,85.89
2023-04-16T12:13:54.577Z,85.55
2023-04-16T12:14:54.527Z,85.55
2023-04-16T12:15:54.549Z,85.24
2023-04-16T12:16:54.614Z,85.64
2023-04-16T12:17:54.599Z,86.46
2023-04-16T12:18:54.592Z,85.38
2023-04-16T12:19:54.545Z,85.24
2023-04-16T12:20:54.560Z,84.72
2023-04-16T12:21:54.527Z,84.83
2023-04-16T12:22:54.525Z,86.12
2023-04-16T12:23:54.485Z,84.48
2023-04-16T12:24:54.499Z,84.31
2023-04-16T12:25:54.531Z,84.17
2023-04-16T12:26:54.500Z,84.58
2023-04-16T12:27:54.481Z,85.50
2023-04-16T12:28:54.445Z,84.95
2023-04-16T12:29:54.467Z,84.34
2023-04-16T12:30:54.521Z,83.93
2023-04-16T12:31:54.456Z,83.52
2023-04-16T12:32:56.061Z,84.03
2023-04-16T12:33:54.501Z,82.81
2023-04-16T12:34:54.439Z,84.24
2023-04-16T12:35:54.408Z,83.32
2023-04-16T12:36:54.422Z,84.24
2023-04-16T12:37:54.396Z,84.55
2023-04-16T12:38:54.416Z,84.24
2023-04-16T12:39:54.461Z,84.85
2023-04-16T12:40:54.407Z,85.40
2023-04-16T12:41:54.379Z,84.89
2023-04-16T12:42:54.350Z,84.38
2023-04-16T12:43:54.350Z,85.10
2023-04-16T12:44:54.405Z,84.79
2023-04-16T12:45:54.407Z,84.79
2023-04-16T12:46:54.401Z,84.38
2023-04-16T12:47:54.357Z,85.30
2023-04-16T12:48:54.306Z,85.03
2023-04-16T12:49:54.387Z,85.40
2023-04-16T12:50:54.321Z,86.12
2023-04-16T12:51:54.367Z,86.46
2023-04-16T12:52:54.301Z,85.91
2023-04-16T12:53:54.346Z,86.90
2023-04-16T12:54:54.280Z,87.00
2023-04-16T12:55:54.274Z,85.63
2023-04-16T12:56:54.346Z,85.42
2023-04-16T12:57:54.286Z,85.16
2023-04-16T12:58:54.252Z,83.28
2023-04-16T12:59:54.239Z,82.81
2023-04-16T13:00:54.264Z,83.93
2023-04-16T13:01:54.386Z,84.34
2023-04-16T13:02:54.394Z,84.34
2023-04-16T13:03:54.328Z,84.24
2023-04-16T13:04:54.198Z,84.00
2023-04-16T13:05:55.205Z,84.14
2023-04-16T13:06:54.207Z,85.06
2023-04-16T13:07:54.177Z,84.55
2023-04-16T13:08:54.210Z,84.24
2023-04-16T13:09:54.207Z,84.09
2023-04-16T13:10:54.205Z,84.30
2023-04-16T13:11:54.165Z,83.28
2023-04-16T13:12:54.217Z,82.67
2023-04-16T13:13:54.162Z,82.67
2023-04-16T13:14:54.124Z,82.15
2023-04-16T13:15:54.188Z,80.83
2023-04-16T13:16:54.174Z,81.65
2023-04-16T13:17:54.223Z,81.65
2023-04-16T13:18:54.313Z,81.74
2023-04-16T13:19:54.123Z,82.46
2023-04-16T13:20:54.152Z,82.50
2023-04-16T13:21:54.239Z,82.29
2023-04-16T13:22:54.113Z,82.77
2023-04-16T13:23:54.359Z,82.70
2023-04-16T13:24:54.354Z,84.24
2023-04-16T13:25:54.096Z,84.55
2023-04-16T13:26:54.866Z,82.81
2023-04-16T13:27:54.069Z,82.81
2023-04-16T13:28:54.314Z,83.22
2023-04-16T13:29:55.470Z,83.01
2023-04-16T13:30:54.209Z,83.22
2023-04-16T13:31:54.103Z,84.03
2023-04-16T13:32:54.046Z,84.14
2023-04-16T13:33:54.661Z,84.03
2023-04-16T13:34:54.049Z,83.46
2023-04-16T13:35:53.999Z,83.46
2023-04-16T13:36:54.125Z,82.54
2023-04-16T13:37:54.025Z,84.28
2023-04-16T13:38:53.997Z,82.95
2023-04-16T13:39:53.959Z,83.42
2023-04-16T13:40:53.996Z,84.24
2023-04-16T13:41:54.010Z,82.95
2023-04-16T13:42:53.988Z,82.50
2023-04-16T13:43:53.988Z,83.15
2023-04-16T13:44:53.924Z,82.64
2023-04-16T13:45:53.981Z,83.25
2023-04-16T13:46:53.997Z,83.39
2023-04-16T13:47:54.046Z,84.42
2023-04-16T13:48:53.925Z,84.28
2023-04-16T13:49:53.898Z,84.28
2023-04-16T13:50:53.949Z,84.58
2023-04-16T13:51:53.900Z,84.07
2023-04-16T13:52:53.913Z,84.38
2023-04-16T13:53:53.901Z,84.79
2023-04-16T13:54:53.885Z,82.84
2023-04-16T13:55:53.885Z,84.07
2023-04-16T13:56:53.936Z,84.48
2023-04-16T13:57:53.851Z,84.17
2023-04-16T13:58:53.881Z,83.97
2023-04-16T13:59:53.868Z,84.17
2023-04-16T14:00:53.925Z,83.46
2023-04-16T14:01:53.819Z,84.38
2023-04-16T14:02:53.936Z,83.66
2023-04-16T14:03:54.538Z,84.58
2023-04-16T14:04:53.786Z,84.28
2023-04-16T14:05:53.809Z,84.31
2023-04-16T14:06:53.815Z,84.22
2023-04-16T14:07:53.839Z,84.28
2023-04-16T14:08:53.757Z,83.29
2023-04-16T14:09:53.755Z,82.89
2023-04-16T14:10:55.634Z,83.25
2023-04-16T14:11:53.770Z,83.39
2023-04-16T14:12:53.776Z,82.89
2023-04-16T14:13:53.718Z,83.56
2023-04-16T14:14:53.723Z,83.60
2023-04-16T14:15:53.761Z,83.19
2023-04-16T14:16:53.742Z,83.46
2023-04-16T14:17:54.729Z,84.31
2023-04-16T14:18:53.743Z,84.42
2023-04-16T14:19:53.705Z,84.28
2023-04-16T14:20:53.695Z,83.25
2023-04-16T14:21:53.741Z,84.42
2023-04-16T14:22:53.687Z,85.75
2023-04-16T14:23:53.710Z,85.64
2023-04-16T14:24:54.664Z,85.34
2023-04-16T14:25:54.146Z,85.85
2023-04-16T14:26:53.821Z,87.32
2023-04-16T14:27:53.633Z,87.63
2023-04-16T14:28:53.627Z,87.63
2023-04-16T14:29:53.607Z,87.73
2023-04-16T14:30:53.587Z,87.37
2023-04-16T14:31:54.626Z,87.94
2023-04-16T14:32:53.664Z,87.77
2023-04-16T14:33:53.591Z,88.24
2023-04-16T14:34:53.602Z,88.24
2023-04-16T14:35:53.586Z,87.32
2023-04-16T14:36:53.592Z,87.84
2023-04-16T14:37:53.584Z,86.44
2023-04-16T14:38:53.564Z,87.02
2023-04-16T14:39:53.790Z,87.88
2023-04-16T14:40:53.555Z,87.53
2023-04-16T14:41:53.544Z,87.53
2023-04-16T14:42:53.538Z,87.43
2023-04-16T14:43:53.526Z,87.63
2023-04-16T14:44:53.516Z,87.12
2023-04-16T14:45:53.537Z,87.73
2023-04-16T14:46:53.505Z,87.94
2023-04-16T14:47:53.560Z,88.04
2023-04-16T14:48:53.498Z,87.84
2023-04-16T14:49:53.495Z,87.94
2023-04-16T14:50:53.473Z,87.88
2023-04-16T14:51:53.497Z,88.39
2023-04-16T14:52:53.470Z,88.14
2023-04-16T14:53:53.448Z,88.14
2023-04-16T14:54:53.453Z,88.24
2023-04-16T14:55:53.441Z,87.73
2023-04-16T14:56:53.450Z,87.63
2023-04-16T14:57:53.405Z,88.04
2023-04-16T14:58:53.409Z,85.11
2023-04-16T14:59:53.438Z,87.63
2023-04-16T15:00:53.487Z,87.84
2023-04-16T15:01:53.444Z,87.26
2023-04-16T15:02:53.596Z,87.37
2023-04-16T15:03:53.531Z,85.93
2023-04-16T15:04:53.532Z,85.72
2023-04-16T15:05:53.424Z,85.77
2023-04-16T15:07:54.345Z,86.90
2023-04-16T15:08:53.353Z,86.38
2023-04-16T15:09:53.344Z,86.01
2023-04-16T15:10:53.426Z,86.63
2023-04-16T15:11:53.322Z,87.55
2023-04-16T15:12:53.282Z,87.04
2023-04-16T15:13:53.308Z,87.49
2023-04-16T15:14:53.294Z,86.87
2023-04-16T15:15:53.328Z,87.90
2023-04-16T15:16:53.342Z,87.79
2023-04-16T15:17:53.356Z,87.90
2023-04-16T15:18:53.272Z,88.00
2023-04-16T15:19:53.289Z,88.00
2023-04-16T15:20:53.245Z,88.41
2023-04-16T15:21:53.339Z,88.21
2023-04-16T15:22:53.260Z,88.92
2023-04-16T15:23:53.265Z,88.62
2023-04-16T15:24:53.276Z,88.51
2023-04-16T15:25:53.232Z,88.72
2023-04-16T15:26:53.250Z,88.41
2023-04-16T15:27:53.193Z,88.62
2023-04-16T15:28:53.207Z,88.72
2023-04-16T15:29:53.226Z,88.72
2023-04-16T15:30:53.244Z,88.72
2023-04-16T15:31:53.249Z,88.66
2023-04-16T15:32:53.281Z,89.37
2023-04-16T15:33:53.207Z,90.03
2023-04-16T15:34:53.134Z,89.58
2023-04-16T15:35:53.139Z,89.58
2023-04-16T15:36:53.175Z,90.03
2023-04-16T15:37:53.199Z,91.06
2023-04-16T15:38:53.164Z,91.57
2023-04-16T15:39:53.189Z,91.78
2023-04-16T15:40:53.101Z,90.95
2023-04-16T15:42:01.438Z,91.67
2023-04-16T15:42:55.114Z,91.57
2023-04-16T15:43:53.129Z,91.93
2023-04-16T15:44:53.090Z,91.47
2023-04-16T15:45:53.113Z,91.67
2023-04-16T15:46:53.075Z,91.78
2023-04-16T15:47:53.085Z,92.19
2023-04-16T15:48:53.053Z,92.19